Panama City/Tyndall AFB, Florida
Current Conditions -  °F | °C
As of 4:58 PM on Thursday 18 Dec 2014 (Local Time) from KPAM Reporting Station
Scattered Clouds Scattered Clouds  
Wind Chill: 55°   Ceiling: Unl
Heat Index: 55°   Visibility: 10mi
Dew Point: 46°   Wind: 2mph
Humidity: 72%   Direction: 270°W
Pressure: 30.12"   Gusts: NA
Location:  30.06°N, 85.58°W
Report Text: KPAM 182258Z AUTO 27002KT 10SM SCT190 13/08 A3012 RMK AO2 SLP203
Loading
Personal Weather Stations






























Interactive Weather Map New forecast layout! Learn more

10-Day Weather Forecast

Advertisements
Track Severe Weather on mobile